Time;durP1;ratioP1;P1;durP2;ratioP2;P2;SDS_P1;SDS_P2;PMS_P1;PMS_P2;Temp;Humidity;BMP_temperature;BMP_pressure;BME280_temperature;BME280_humidity;BME280_pressure;Samples;Min_cycle;Max_cycle;Signal;HPM_P1;HPM_P2
2020/12/19 00:00:57;;;;;;;38.05;23.00;;;6.00;99.90;;;;;;4954443;29;20554;-77
2020/12/19 00:03:24;;;;;;;40.55;22.75;;;6.00;99.90;;;;;;4956323;29;20564;-77
2020/12/19 00:05:50;;;;;;;37.28;22.90;;;6.00;99.90;;;;;;5006255;23;20054;-80
2020/12/19 00:08:16;;;;;;;37.05;22.83;;;6.00;99.90;;;;;;5000161;28;20113;-78
2020/12/19 00:10:43;;;;;;;35.17;21.35;;;6.10;99.90;;;;;;4990400;28;20081;-80
2020/12/19 00:13:10;;;;;;;35.25;22.17;;;6.10;99.90;;;;;;4998636;28;20058;-79
2020/12/19 00:15:36;;;;;;;37.83;22.63;;;6.10;99.90;;;;;;5005290;28;20093;-80
2020/12/19 00:18:03;;;;;;;37.75;21.65;;;6.10;99.90;;;;;;5011258;28;20085;-79
2020/12/19 00:20:29;;;;;;;36.38;21.75;;;6.10;99.90;;;;;;5019760;28;20133;-80
2020/12/19 00:22:56;;;;;;;38.90;21.35;;;6.10;99.90;;;;;;5018994;28;20056;-80
2020/12/19 00:25:22;;;;;;;37.28;22.77;;;6.10;99.90;;;;;;5019881;28;20085;-80
2020/12/19 00:27:48;;;;;;;38.90;21.92;;;6.10;99.90;;;;;;5020047;28;20085;-80
2020/12/19 00:30:16;;;;;;;36.30;21.15;;;6.10;99.90;;;;;;5019632;28;20185;-80
2020/12/19 00:32:42;;;;;;;38.80;22.15;;;6.20;99.90;;;;;;5019111;28;20073;-80
2020/12/19 00:35:09;;;;;;;36.03;21.58;;;6.10;99.90;;;;;;5017726;28;20126;-79
2020/12/19 00:37:40;;;;;;;38.13;21.83;;;6.10;99.90;;;;;;5017054;28;20134;-79
2020/12/19 00:40:07;;;;;;;39.45;23.38;;;6.10;99.90;;;;;;5016222;28;20046;-79
2020/12/19 00:42:36;;;;;;;41.25;23.00;;;6.10;99.90;;;;;;5004723;28;20133;-79
2020/12/19 00:45:03;;;;;;;38.33;22.52;;;6.00;99.90;;;;;;4995657;28;20129;-79
2020/12/19 00:47:30;;;;;;;40.25;23.02;;;6.10;99.90;;;;;;4996007;28;20077;-80
2020/12/19 00:49:56;;;;;;;39.55;22.88;;;6.00;99.90;;;;;;4996030;28;20129;-79
2020/12/19 00:52:23;;;;;;;39.22;21.95;;;6.00;99.90;;;;;;4996903;28;20232;-80
2020/12/19 00:54:50;;;;;;;41.08;23.40;;;6.00;99.90;;;;;;4997015;28;20088;-79
2020/12/19 00:57:16;;;;;;;37.47;23.00;;;6.10;99.90;;;;;;4996690;28;20050;-78
2020/12/19 00:59:43;;;;;;;39.50;23.45;;;6.10;99.90;;;;;;4995387;28;20137;-78
2020/12/19 01:02:09;;;;;;;36.30;22.65;;;6.10;99.90;;;;;;4993991;28;20503;-78
2020/12/19 01:04:36;;;;;;;38.35;22.80;;;6.10;99.90;;;;;;5010790;28;20466;-78
2020/12/19 01:07:03;;;;;;;37.28;22.15;;;6.10;99.90;;;;;;5017152;28;20133;-79
2020/12/19 01:09:29;;;;;;;40.20;23.27;;;6.20;99.90;;;;;;5019995;28;20077;-79
2020/12/19 01:11:56;;;;;;;33.03;20.90;;;6.20;99.90;;;;;;5018974;28;20125;-80
2020/12/19 01:14:22;;;;;;;36.20;22.08;;;6.20;99.90;;;;;;5019782;28;20475;-80
2020/12/19 01:16:49;;;;;;;33.83;20.67;;;6.20;99.90;;;;;;5020669;28;20523;-80
2020/12/19 01:19:15;;;;;;;36.25;21.30;;;6.20;99.90;;;;;;5020220;28;20161;-80
2020/12/19 01:21:42;;;;;;;31.40;19.25;;;6.20;99.90;;;;;;5019524;28;20077;-80
2020/12/19 01:24:09;;;;;;;32.95;19.85;;;6.20;99.90;;;;;;5019984;28;20057;-80
2020/12/19 01:26:35;;;;;;;34.28;19.58;;;6.30;99.90;;;;;;5022406;28;20046;-81
2020/12/19 01:29:01;;;;;;;31.70;20.25;;;6.30;99.90;;;;;;5020210;28;20069;-79
2020/12/19 01:31:28;;;;;;;32.50;20.15;;;6.30;99.90;;;;;;5018975;28;20092;-80
2020/12/19 01:33:54;;;;;;;30.58;19.65;;;6.30;99.90;;;;;;5019372;28;20529;-80
2020/12/19 01:36:23;;;;;;;33.05;19.65;;;6.30;99.90;;;;;;5019409;28;20045;-80
2020/12/19 01:38:51;;;;;;;33.50;20.55;;;6.20;99.90;;;;;;5019331;28;20092;-79
2020/12/19 01:41:17;;;;;;;32.42;20.33;;;6.20;99.90;;;;;;5019983;28;20105;-79
2020/12/19 01:43:47;;;;;;;34.83;20.90;;;6.20;99.90;;;;;;5021963;28;20086;-79
2020/12/19 01:46:26;;;;;;;36.65;21.42;;;6.20;99.90;;;;;;5012967;28;20133;-79
2020/12/19 01:48:53;;;;;;;34.67;21.50;;;6.20;99.90;;;;;;4997186;28;20050;-79
2020/12/19 01:51:20;;;;;;;34.28;21.33;;;6.20;99.90;;;;;;4996183;28;20149;-78
2020/12/19 01:53:46;;;;;;;34.15;20.58;;;6.20;99.90;;;;;;4998916;28;20114;-79
2020/12/19 01:56:21;;;;;;;32.47;18.13;;;6.20;99.90;;;;;;5009127;28;20084;-79
2020/12/19 01:58:48;;;;;;;31.05;19.65;;;6.30;99.90;;;;;;5002776;28;20746;-78
2020/12/19 02:01:17;;;;;;;33.35;19.92;;;6.30;99.90;;;;;;5010986;28;20082;-80
2020/12/19 02:03:43;;;;;;;31.00;20.10;;;6.40;99.90;;;;;;5018145;28;20088;-80
2020/12/19 02:06:10;;;;;;;30.08;20.23;;;6.40;99.90;;;;;;5010947;28;20054;-79
2020/12/19 02:08:37;;;;;;;32.53;20.40;;;6.40;99.90;;;;;;5001201;28;20133;-79
2020/12/19 02:11:06;;;;;;;33.22;20.08;;;6.40;99.90;;;;;;5013271;28;20085;-78
2020/12/19 02:13:33;;;;;;;28.92;18.55;;;6.40;99.90;;;;;;5018852;28;20104;-79
2020/12/19 02:16:00;;;;;;;33.05;19.65;;;6.50;99.90;;;;;;5017485;28;20510;-80
2020/12/19 02:18:26;;;;;;;27.05;18.98;;;6.50;99.90;;;;;;5007834;28;20185;-80
2020/12/19 02:20:52;;;;;;;31.33;21.08;;;6.50;99.90;;;;;;4998090;28;20473;-80
2020/12/19 02:23:21;;;;;;;32.40;19.90;;;6.50;99.90;;;;;;5017371;28;20056;-78
2020/12/19 02:25:48;;;;;;;29.90;19.63;;;6.40;99.90;;;;;;5022936;28;20050;-79
2020/12/19 02:28:15;;;;;;;34.15;20.73;;;6.40;99.90;;;;;;5023252;28;20077;-80
2020/12/19 02:30:41;;;;;;;32.78;20.15;;;6.40;99.90;;;;;;5022523;28;20116;-79
2020/12/19 02:33:07;;;;;;;34.08;19.75;;;6.40;99.90;;;;;;5024365;28;20080;-80
2020/12/19 02:35:35;;;;;;;32.55;20.45;;;6.40;99.90;;;;;;5018058;28;20101;-79
2020/12/19 02:38:02;;;;;;;32.50;20.88;;;6.40;99.90;;;;;;5002959;28;20112;-80
2020/12/19 02:40:29;;;;;;;28.13;19.70;;;6.40;99.90;;;;;;5002001;28;20137;-80
2020/12/19 02:42:56;;;;;;;33.72;21.25;;;6.40;99.90;;;;;;5001894;28;20074;-79
2020/12/19 02:45:22;;;;;;;32.78;20.13;;;6.40;99.90;;;;;;5012443;28;20122;-79
2020/12/19 02:47:48;;;;;;;32.90;20.73;;;6.40;99.90;;;;;;5009777;28;20126;-81
2020/12/19 02:50:15;;;;;;;31.63;20.33;;;6.40;99.90;;;;;;5011542;28;20130;-81
2020/12/19 02:52:41;;;;;;;33.25;21.77;;;6.40;99.90;;;;;;5010689;28;20209;-80
2020/12/19 02:55:07;;;;;;;37.15;20.80;;;6.40;99.90;;;;;;5011223;28;20534;-79
2020/12/19 02:57:35;;;;;;;34.35;21.40;;;6.40;99.90;;;;;;5017708;28;20455;-77
2020/12/19 03:00:01;;;;;;;36.47;22.50;;;6.30;99.90;;;;;;5016787;28;20141;-80
2020/12/19 03:02:27;;;;;;;34.28;22.30;;;6.30;99.90;;;;;;5014354;28;20120;-79
2020/12/19 03:04:54;;;;;;;34.17;22.52;;;6.30;99.90;;;;;;5000801;28;20128;-80
2020/12/19 03:07:20;;;;;;;35.72;22.63;;;6.40;99.90;;;;;;5001074;28;20161;-80
2020/12/19 03:09:46;;;;;;;32.40;21.17;;;6.40;99.90;;;;;;5006788;28;20107;-79
2020/12/19 03:12:13;;;;;;;34.13;22.00;;;6.30;99.90;;;;;;5018967;28;20544;-80
2020/12/19 03:14:40;;;;;;;38.47;22.35;;;6.30;99.90;;;;;;5010439;28;20141;-80
2020/12/19 03:17:06;;;;;;;40.28;23.52;;;6.30;99.90;;;;;;5003167;28;20086;-80
2020/12/19 03:19:33;;;;;;;34.63;23.08;;;6.20;99.90;;;;;;5016516;28;20125;-80
2020/12/19 03:21:59;;;;;;;34.10;22.75;;;6.20;99.90;;;;;;5005203;28;20093;-81
2020/12/19 03:24:25;;;;;;;42.60;24.10;;;6.20;99.90;;;;;;5001175;28;20134;-81
2020/12/19 03:26:52;;;;;;;38.10;24.02;;;6.20;99.90;;;;;;5002435;28;20650;-81
2020/12/19 03:29:18;;;;;;;36.70;23.52;;;6.10;99.90;;;;;;5001936;28;20130;-81
2020/12/19 03:31:45;;;;;;;36.55;22.90;;;6.10;99.90;;;;;;5002466;28;20487;-80
2020/12/19 03:34:12;;;;;;;37.83;23.73;;;6.10;99.90;;;;;;5001254;28;20082;-81
2020/12/19 03:36:38;;;;;;;40.90;25.50;;;6.10;99.90;;;;;;5002022;28;20133;-80
2020/12/19 03:39:05;;;;;;;41.83;25.33;;;6.10;99.90;;;;;;5003201;28;20107;-79
2020/12/19 03:41:31;;;;;;;37.50;24.10;;;6.10;99.90;;;;;;5000642;28;20105;-80
2020/12/19 03:43:57;;;;;;;39.78;24.52;;;6.10;99.90;;;;;;5001308;28;20093;-80
2020/12/19 03:46:24;;;;;;;41.22;23.80;;;6.10;99.90;;;;;;5001912;28;20086;-80
2020/12/19 03:48:51;;;;;;;37.10;23.45;;;6.10;99.90;;;;;;4996872;28;20415;-80
2020/12/19 03:51:17;;;;;;;40.22;24.67;;;6.10;99.90;;;;;;4998398;28;20096;-80
2020/12/19 03:53:44;;;;;;;42.25;23.75;;;6.10;99.90;;;;;;4996254;28;20055;-79
2020/12/19 03:56:10;;;;;;;35.30;23.77;;;6.10;99.90;;;;;;4994950;28;20081;-79
2020/12/19 03:58:36;;;;;;;42.03;25.48;;;6.10;99.90;;;;;;4994662;28;20094;-78
2020/12/19 04:01:03;;;;;;;39.85;24.95;;;6.00;99.90;;;;;;4994238;28;20137;-78
2020/12/19 04:03:29;;;;;;;46.50;26.58;;;6.00;99.90;;;;;;4998364;28;20141;-79
2020/12/19 04:05:57;;;;;;;42.75;25.45;;;5.90;99.90;;;;;;4994212;28;20562;-79
2020/12/19 04:08:23;;;;;;;40.47;24.90;;;5.90;99.90;;;;;;4994770;28;20109;-79
2020/12/19 04:10:49;;;;;;;42.72;26.73;;;5.80;99.90;;;;;;4998968;28;20078;-80
2020/12/19 04:13:16;;;;;;;39.47;24.80;;;5.80;99.90;;;;;;5010417;28;20101;-82
2020/12/19 04:15:42;;;;;;;44.60;26.40;;;5.80;99.90;;;;;;5002024;28;20054;-81
2020/12/19 04:18:10;;;;;;;39.50;25.17;;;5.80;99.90;;;;;;5000260;28;20185;-81
2020/12/19 04:20:36;;;;;;;44.38;26.52;;;5.80;99.90;;;;;;4998722;28;20085;-80
2020/12/19 04:23:03;;;;;;;43.60;26.10;;;5.80;99.90;;;;;;4998491;28;20422;-80
2020/12/19 04:25:30;;;;;;;39.03;24.83;;;5.80;99.90;;;;;;5000404;28;20141;-81
2020/12/19 04:27:57;;;;;;;39.72;24.73;;;5.80;99.90;;;;;;4999468;28;20129;-80
2020/12/19 04:30:23;;;;;;;43.75;26.63;;;5.80;99.90;;;;;;4997327;28;20129;-79
2020/12/19 04:32:50;;;;;;;42.55;26.55;;;5.70;99.90;;;;;;4996462;28;20476;-78
2020/12/19 04:35:16;;;;;;;44.95;26.15;;;5.70;99.90;;;;;;4997288;28;20092;-79
2020/12/19 04:37:43;;;;;;;44.15;26.55;;;5.70;99.90;;;;;;5001523;28;20086;-80
2020/12/19 04:40:10;;;;;;;44.28;27.10;;;5.70;99.90;;;;;;5006366;28;20234;-80
2020/12/19 04:42:37;;;;;;;48.42;27.50;;;5.60;99.90;;;;;;5005625;28;20057;-80
2020/12/19 04:45:04;;;;;;;45.28;26.33;;;5.60;99.90;;;;;;5004353;28;20133;-80
2020/12/19 04:47:31;;;;;;;49.13;27.92;;;5.60;99.90;;;;;;5001095;28;20161;-81
2020/12/19 04:49:58;;;;;;;48.95;28.13;;;5.60;99.90;;;;;;5000235;28;20102;-81
2020/12/19 04:52:25;;;;;;;45.58;27.17;;;5.50;99.90;;;;;;4999183;28;20057;-80
2020/12/19 04:54:51;;;;;;;49.88;29.05;;;5.50;99.90;;;;;;4998476;28;20107;-80
2020/12/19 04:57:20;;;;;;;45.92;27.05;;;5.50;99.90;;;;;;4999799;28;20065;-79
2020/12/19 04:59:47;;;;;;;48.30;29.65;;;5.60;99.90;;;;;;4997391;28;20089;-79
2020/12/19 05:02:14;;;;;;;45.80;27.75;;;5.50;99.90;;;;;;4996933;28;20138;-79
2020/12/19 05:04:42;;;;;;;50.35;29.05;;;5.50;99.90;;;;;;4999245;28;20078;-80
2020/12/19 05:07:10;;;;;;;49.95;28.67;;;5.50;99.90;;;;;;4999969;28;20082;-79
2020/12/19 05:09:38;;;;;;;48.20;28.65;;;5.50;99.90;;;;;;5007309;28;20057;-79
2020/12/19 05:12:04;;;;;;;49.78;28.98;;;5.50;99.90;;;;;;5003331;28;20082;-80
2020/12/19 05:14:32;;;;;;;45.95;28.63;;;5.40;99.90;;;;;;5009658;28;20073;-81
2020/12/19 05:16:59;;;;;;;48.28;28.58;;;5.40;99.90;;;;;;5011263;28;20082;-81
2020/12/19 05:19:27;;;;;;;49.50;29.13;;;5.40;99.90;;;;;;5007343;28;20050;-80
2020/12/19 05:21:54;;;;;;;51.28;29.73;;;5.40;99.90;;;;;;5004029;28;20081;-80
2020/12/19 05:24:27;;;;;;;51.13;29.08;;;5.40;99.90;;;;;;5001887;28;20050;-80
2020/12/19 05:26:53;;;;;;;;;;;5.40;99.90;;;;;;5001148;28;20061;-83
2020/12/19 05:29:20;;;;;;;48.25;27.98;;;5.40;99.90;;;;;;4998713;28;20447;-79
2020/12/19 05:31:54;;;;;;;46.97;27.80;;;5.40;99.90;;;;;;4996787;28;20597;-80
2020/12/19 05:34:21;;;;;;;50.53;27.60;;;5.40;99.90;;;;;;4999382;28;20108;-80
2020/12/19 05:36:49;;;;;;;47.63;27.58;;;5.40;99.90;;;;;;4996614;28;20074;-81
2020/12/19 05:39:16;;;;;;;46.90;27.10;;;5.50;99.90;;;;;;4997691;28;20058;-80
2020/12/19 05:41:43;;;;;;;48.42;28.95;;;5.50;99.90;;;;;;4997058;28;20590;-80
2020/12/19 05:44:10;;;;;;;47.33;28.65;;;5.40;99.90;;;;;;4998421;28;20566;-81
2020/12/19 05:46:38;;;;;;;47.00;27.98;;;5.50;99.90;;;;;;4995447;28;20086;-79
2020/12/19 05:49:07;;;;;;;48.63;28.58;;;5.50;99.90;;;;;;4994560;28;20132;-80
2020/12/19 05:51:35;;;;;;;49.03;28.00;;;5.40;99.90;;;;;;4997298;28;20562;-82
2020/12/19 05:54:04;;;;;;;49.03;28.00;;;5.40;99.90;;;;;;5000226;28;20522;-81
2020/12/19 05:56:34;;;;;;;50.13;30.38;;;5.50;99.90;;;;;;5000134;28;20238;-80
2020/12/19 05:59:02;;;;;;;47.33;28.75;;;5.40;99.90;;;;;;4999780;28;20567;-80
2020/12/19 06:01:29;;;;;;;45.08;28.08;;;5.50;99.90;;;;;;4999204;28;20061;-80
2020/12/19 06:03:56;;;;;;;43.90;27.02;;;5.50;99.90;;;;;;5001038;28;20069;-82
2020/12/19 06:06:25;;;;;;;44.83;28.13;;;5.50;99.90;;;;;;4999972;23;20141;-78
2020/12/19 06:08:52;;;;;;;45.92;27.48;;;5.50;99.90;;;;;;4972576;28;20086;-79
2020/12/19 06:11:24;;;;;;;50.15;29.10;;;5.50;99.90;;;;;;4972494;28;20050;-78
2020/12/19 06:13:56;;;;;;;45.00;28.90;;;5.60;99.90;;;;;;4972985;28;20077;-79
2020/12/19 06:16:23;;;;;;;42.67;27.05;;;5.50;99.90;;;;;;4973732;28;20386;-78
2020/12/19 06:19:14;;;;;;;43.90;26.37;;;5.50;99.90;;;;;;4974729;28;20519;-78
2020/12/19 06:21:48;;;;;;;44.05;27.63;;;5.50;99.90;;;;;;4972087;28;20295;-78
2020/12/19 06:24:42;;;;;;;46.55;27.58;;;5.50;99.90;;;;;;4973208;28;20211;-78
2020/12/19 06:27:24;;;;;;;43.65;27.75;;;5.60;99.90;;;;;;4970530;28;20133;-78
2020/12/19 06:29:51;;;;;;;39.58;25.05;;;5.70;99.90;;;;;;4969017;28;20209;-78
2020/12/19 06:32:19;;;;;;;41.92;26.02;;;5.70;99.90;;;;;;4971950;28;20189;-78
2020/12/19 06:34:58;;;;;;;39.42;24.80;;;5.80;99.90;;;;;;4975289;28;20101;-78
2020/12/19 06:37:27;;;;;;;42.35;24.88;;;5.80;99.90;;;;;;4972968;28;20097;-79
2020/12/19 06:40:11;;;;;;;32.90;20.70;;;5.90;99.90;;;;;;4972992;28;20078;-79
2020/12/19 06:42:40;;;;;;;33.00;22.17;;;6.00;99.90;;;;;;4973361;28;20050;-81
2020/12/19 06:45:24;;;;;;;37.03;24.08;;;6.10;99.90;;;;;;4973399;28;20057;-78
2020/12/19 06:47:52;;;;;;;34.88;21.90;;;6.10;99.90;;;;;;4972256;28;20426;-78
2020/12/19 06:50:19;;;;;;;33.70;22.77;;;6.20;99.90;;;;;;4972602;28;20105;-80
2020/12/19 06:52:58;;;;;;;35.25;21.80;;;6.20;99.90;;;;;;4973058;28;20141;-78
2020/12/19 06:55:26;;;;;;;36.88;23.17;;;6.20;99.90;;;;;;4972547;28;20078;-77
2020/12/19 06:57:54;;;;;;;39.17;22.80;;;6.20;99.90;;;;;;4973073;28;20474;-78
2020/12/19 07:00:22;;;;;;;32.95;22.10;;;6.20;99.90;;;;;;4969741;28;20078;-77
2020/12/19 07:02:53;;;;;;;32.15;22.20;;;6.30;99.90;;;;;;4971489;28;20154;-78
2020/12/19 07:05:24;;;;;;;34.50;23.13;;;6.30;99.90;;;;;;4971451;28;20065;-78
2020/12/19 07:07:52;;;;;;;34.53;22.80;;;6.30;99.90;;;;;;4970276;28;20058;-78
2020/12/19 07:10:34;;;;;;;35.10;22.20;;;6.30;99.90;;;;;;4972714;28;20410;-76
2020/12/19 07:13:00;;;;;;;32.00;21.00;;;6.40;99.90;;;;;;4974881;28;20515;-77
2020/12/19 07:15:43;;;;;;;36.40;23.02;;;6.40;99.90;;;;;;4976467;28;20082;-82
2020/12/19 07:18:24;;;;;;;35.67;22.67;;;6.40;99.90;;;;;;4977164;28;20138;-80
2020/12/19 07:20:57;;;;;;;32.80;22.13;;;6.40;99.90;;;;;;4974729;28;20513;-78
2020/12/19 07:23:23;;;;;;;34.88;22.67;;;6.40;99.90;;;;;;4975077;28;20050;-78
2020/12/19 07:25:51;;;;;;;34.92;23.23;;;6.40;99.90;;;;;;4975836;28;20089;-77
2020/12/19 07:28:18;;;;;;;34.60;23.05;;;6.40;99.90;;;;;;4974731;28;20050;-78
2020/12/19 07:30:45;;;;;;;37.53;22.45;;;6.40;99.90;;;;;;4974482;28;20075;-78
2020/12/19 07:33:12;;;;;;;33.45;22.80;;;6.40;99.90;;;;;;4971179;28;20051;-78
2020/12/19 07:35:38;;;;;;;40.03;23.20;;;6.50;99.90;;;;;;4976020;28;20141;-78
2020/12/19 07:38:05;;;;;;;35.78;22.83;;;6.50;99.90;;;;;;4977024;28;20109;-79
2020/12/19 07:40:32;;;;;;;37.33;22.42;;;6.40;99.90;;;;;;4976430;28;20095;-79
2020/12/19 07:43:00;;;;;;;35.03;22.77;;;6.50;99.90;;;;;;4977295;28;20415;-78
2020/12/19 07:45:27;;;;;;;35.08;23.02;;;6.50;99.90;;;;;;4977003;28;20055;-77
2020/12/19 07:47:54;;;;;;;34.15;21.67;;;6.50;99.90;;;;;;4976820;28;20563;-78
2020/12/19 07:50:24;;;;;;;35.47;22.80;;;6.50;99.90;;;;;;4976505;28;20464;-79
2020/12/19 07:52:59;;;;;;;39.50;24.80;;;6.40;99.90;;;;;;4976291;28;20569;-80
2020/12/19 07:55:26;;;;;;;35.72;22.88;;;6.50;99.90;;;;;;4977464;28;20055;-78
2020/12/19 07:57:54;;;;;;;36.40;23.35;;;6.50;99.90;;;;;;4977624;28;20086;-78
2020/12/19 08:00:21;;;;;;;34.28;22.45;;;6.50;99.90;;;;;;4976195;28;20047;-79
2020/12/19 08:02:48;;;;;;;35.33;22.05;;;6.50;99.90;;;;;;4976780;28;20142;-78
2020/12/19 08:05:15;;;;;;;33.40;21.50;;;6.60;99.90;;;;;;4976378;28;20082;-78
2020/12/19 08:07:42;;;;;;;34.50;22.83;;;6.60;99.90;;;;;;4976135;28;20054;-79
2020/12/19 08:10:09;;;;;;;34.28;22.20;;;6.60;99.90;;;;;;4976235;28;20166;-78
2020/12/19 08:12:37;;;;;;;34.00;22.05;;;6.70;99.90;;;;;;4975472;28;20074;-78
2020/12/19 08:15:08;;;;;;;32.38;21.20;;;6.70;99.90;;;;;;4975877;28;20141;-79
2020/12/19 08:17:47;;;;;;;31.48;22.15;;;6.70;99.90;;;;;;4975341;28;20530;-78
2020/12/19 08:20:15;;;;;;;30.15;20.98;;;6.70;99.90;;;;;;4973989;28;20134;-78
2020/12/19 08:22:42;;;;;;;34.88;22.83;;;6.70;99.90;;;;;;4975760;28;20297;-77
2020/12/19 08:25:11;;;;;;;30.35;21.05;;;6.70;99.90;;;;;;4974741;28;20129;-78
2020/12/19 08:27:44;;;;;;;34.83;21.98;;;6.70;99.90;;;;;;4975962;28;20500;-78
2020/12/19 08:30:12;;;;;;;32.35;21.85;;;6.70;99.90;;;;;;4976803;28;20142;-78
2020/12/19 08:32:44;;;;;;;31.58;20.77;;;6.70;99.90;;;;;;4975184;28;20078;-80
2020/12/19 08:35:17;;;;;;;30.42;21.88;;;6.80;99.90;;;;;;4976571;28;20058;-79
2020/12/19 08:37:44;;;;;;;;;;;6.80;99.90;;;;;;4977453;28;20054;-79
2020/12/19 08:40:13;;;;;;;30.65;20.58;;;6.90;99.90;;;;;;4975157;28;20029;-78
2020/12/19 08:42:40;;;;;;;30.55;20.90;;;7.00;99.90;;;;;;4974305;28;20050;-77
2020/12/19 08:45:25;;;;;;;30.00;20.13;;;7.00;99.90;;;;;;4974719;28;20117;-77
2020/12/19 08:47:57;;;;;;;29.33;18.95;;;7.10;99.90;;;;;;4974885;28;20138;-78
2020/12/19 08:50:46;;;;;;;30.40;20.85;;;7.10;99.90;;;;;;4978888;28;20565;-77
2020/12/19 08:53:16;;;;;;;29.65;20.30;;;7.10;99.90;;;;;;4987838;28;20062;-82
2020/12/19 08:55:43;;;;;;;28.40;19.83;;;7.10;99.90;;;;;;4988156;28;20074;-82
2020/12/19 08:58:21;;;;;;;27.52;20.27;;;7.20;99.90;;;;;;4987722;28;20050;-81
2020/12/19 09:00:48;;;;;;;27.65;19.95;;;7.20;99.90;;;;;;4987562;28;20127;-83
2020/12/19 09:03:15;;;;;;;29.98;19.65;;;7.30;99.90;;;;;;4985871;28;20105;-81
2020/12/19 09:05:45;;;;;;;29.25;20.50;;;7.20;99.90;;;;;;4982517;28;20050;-81
2020/12/19 09:08:13;;;;;;;29.20;19.85;;;7.30;99.90;;;;;;4987052;28;20057;-82
2020/12/19 09:10:40;;;;;;;27.30;19.02;;;7.30;99.90;;;;;;4985994;28;20046;-83
2020/12/19 09:13:08;;;;;;;28.00;19.40;;;7.40;99.90;;;;;;4982070;28;20055;-82
2020/12/19 09:15:35;;;;;;;27.67;19.15;;;7.40;99.90;;;;;;4984528;28;20121;-81
2020/12/19 09:18:16;;;;;;;26.05;18.92;;;7.40;99.90;;;;;;4982070;28;20054;-81
2020/12/19 09:20:44;;;;;;;27.60;18.50;;;7.50;99.90;;;;;;4982080;28;20058;-83
2020/12/19 09:23:11;;;;;;;28.50;18.50;;;7.50;99.90;;;;;;4982428;28;20070;-81
2020/12/19 09:26:07;;;;;;;25.48;19.23;;;7.50;99.90;;;;;;4983014;28;20081;-82
2020/12/19 09:29:10;;;;;;;25.77;18.73;;;7.60;99.90;;;;;;4981097;28;20054;-82
2020/12/19 09:31:50;;;;;;;25.58;17.90;;;7.60;99.90;;;;;;4963266;28;20423;-81
2020/12/19 09:34:17;;;;;;;27.63;19.23;;;7.60;99.90;;;;;;4963622;28;20051;-83
2020/12/19 09:36:50;;;;;;;25.73;19.27;;;7.70;99.90;;;;;;4962200;28;20051;-82
2020/12/19 09:39:18;;;;;;;30.13;19.95;;;7.70;99.90;;;;;;4959893;28;20055;-82
2020/12/19 09:41:44;;;;;;;25.90;18.77;;;7.80;99.90;;;;;;4959143;28;20106;-81
2020/12/19 09:44:11;;;;;;;24.83;17.70;;;7.80;99.90;;;;;;4959570;28;20086;-81
2020/12/19 09:46:38;;;;;;;24.10;17.48;;;7.90;99.90;;;;;;4958662;28;20570;-81
2020/12/19 09:49:04;;;;;;;26.38;17.90;;;7.90;99.90;;;;;;4959736;28;20086;-82
2020/12/19 09:51:32;;;;;;;23.00;16.42;;;8.00;99.90;;;;;;4958809;28;20301;-80
2020/12/19 09:53:59;;;;;;;25.60;17.60;;;8.10;99.90;;;;;;4959230;28;20047;-81
2020/12/19 09:56:25;;;;;;;22.88;16.50;;;8.10;99.90;;;;;;4959763;28;20086;-80
2020/12/19 09:58:52;;;;;;;24.23;16.13;;;8.20;99.90;;;;;;4964564;28;20110;-81
2020/12/19 10:01:18;;;;;;;21.77;16.17;;;8.20;99.90;;;;;;4961299;28;20051;-82
2020/12/19 10:03:44;;;;;;;23.02;15.90;;;8.30;99.90;;;;;;4962364;28;20055;-82
2020/12/19 10:06:14;;;;;;;23.55;16.40;;;8.40;99.90;;;;;;4960775;28;20055;-82
2020/12/19 10:08:41;;;;;;;20.00;15.35;;;8.40;99.90;;;;;;4963353;28;20122;-82
2020/12/19 10:11:08;;;;;;;23.05;16.60;;;8.50;99.90;;;;;;4965741;28;20434;-83
2020/12/19 10:13:34;;;;;;;22.77;15.70;;;8.50;99.90;;;;;;4964936;28;20115;-82
2020/12/19 10:16:01;;;;;;;20.92;14.88;;;8.60;99.90;;;;;;4965681;28;20058;-83
2020/12/19 10:18:27;;;;;;;19.88;15.20;;;8.60;99.90;;;;;;4961715;28;20055;-78
2020/12/19 10:20:54;;;;;;;20.40;15.35;;;8.70;99.90;;;;;;4958648;28;20142;-83
2020/12/19 10:23:36;;;;;;;20.05;14.77;;;8.70;99.90;;;;;;4962144;28;20062;-81
2020/12/19 10:26:04;;;;;;;20.95;15.48;;;8.80;99.90;;;;;;4965759;29;20117;-81
2020/12/19 10:28:30;;;;;;;20.10;14.77;;;8.90;99.90;;;;;;4969030;28;20051;-82
2020/12/19 10:30:57;;;;;;;23.23;14.98;;;9.00;99.90;;;;;;4967194;28;20058;-81
2020/12/19 10:33:24;;;;;;;19.92;14.60;;;9.10;99.90;;;;;;4966308;28;20094;-83
2020/12/19 10:35:50;;;;;;;18.85;14.43;;;9.20;99.90;;;;;;4965194;28;20062;-81
2020/12/19 10:38:18;;;;;;;19.02;14.10;;;9.20;99.90;;;;;;4965697;28;20110;-82
2020/12/19 10:40:46;;;;;;;20.45;13.63;;;9.40;99.90;;;;;;4965565;28;20530;-82
2020/12/19 10:43:14;;;;;;;20.00;12.88;;;9.50;99.90;;;;;;4965007;28;20043;-83
2020/12/19 10:45:43;;;;;;;16.63;12.93;;;9.50;99.90;;;;;;4967825;28;20054;-83
2020/12/19 10:48:09;;;;;;;17.48;13.57;;;9.60;99.90;;;;;;4967392;28;20058;-82
2020/12/19 10:50:35;;;;;;;18.13;12.40;;;9.70;99.90;;;;;;4967396;28;20055;-82
2020/12/19 10:53:04;;;;;;;18.45;12.82;;;9.80;99.90;;;;;;4967186;28;20058;-82
2020/12/19 10:55:31;;;;;;;16.48;13.00;;;9.90;99.90;;;;;;4967341;28;20055;-81
2020/12/19 10:58:03;;;;;;;17.45;12.35;;;9.90;99.90;;;;;;4967491;28;20051;-81
2020/12/19 11:00:30;;;;;;;15.13;12.02;;;10.00;99.90;;;;;;4966746;28;20087;-81
2020/12/19 11:02:57;;;;;;;18.10;11.68;;;10.10;99.90;;;;;;4966665;28;20051;-82
2020/12/19 11:05:26;;;;;;;17.38;11.75;;;10.10;99.90;;;;;;4966318;28;20082;-81
2020/12/19 11:07:52;;;;;;;13.65;10.68;;;10.20;99.90;;;;;;4967738;28;20499;-82
2020/12/19 11:10:21;;;;;;;14.57;11.25;;;10.30;99.90;;;;;;4965210;28;20503;-81
2020/12/19 11:12:51;;;;;;;14.70;10.70;;;10.40;99.90;;;;;;4964419;29;20055;-82
2020/12/19 11:15:33;;;;;;;14.32;10.00;;;10.40;99.90;;;;;;4964347;28;20098;-82
2020/12/19 11:18:01;;;;;;;12.68;10.27;;;10.50;99.90;;;;;;4963610;28;20051;-81
2020/12/19 11:20:27;;;;;;;13.35;9.90;;;10.50;99.90;;;;;;4964630;28;20051;-81
2020/12/19 11:22:54;;;;;;;15.00;11.20;;;10.60;99.90;;;;;;4965154;28;20051;-81
2020/12/19 11:25:23;;;;;;;15.18;10.23;;;10.60;99.90;;;;;;4964119;28;20066;-81
2020/12/19 11:27:49;;;;;;;15.02;10.52;;;10.70;99.90;;;;;;4965345;28;20130;-82
2020/12/19 11:30:16;;;;;;;13.70;10.23;;;10.70;99.90;;;;;;4965367;28;20047;-82
2020/12/19 11:32:43;;;;;;;15.50;10.48;;;10.80;99.90;;;;;;4962758;28;20091;-80
2020/12/19 11:35:10;;;;;;;11.13;9.30;;;10.80;99.90;;;;;;4963087;28;20177;-79
2020/12/19 11:37:37;;;;;;;13.55;10.15;;;10.90;99.90;;;;;;4962767;28;20051;-79
2020/12/19 11:40:06;;;;;;;16.58;9.43;;;11.00;99.90;;;;;;4965767;28;20562;-81
2020/12/19 11:42:32;;;;;;;13.05;9.35;;;11.00;99.90;;;;;;4964697;29;20055;-82
2020/12/19 11:44:59;;;;;;;11.05;9.02;;;11.10;99.90;;;;;;4969093;28;20047;-81
2020/12/19 11:47:33;;;;;;;12.18;8.63;;;11.30;99.90;;;;;;4971932;28;20070;-81
2020/12/19 11:49:59;;;;;;;10.95;8.23;;;11.40;99.90;;;;;;4966877;28;20051;-80
2020/12/19 11:52:27;;;;;;;9.77;7.85;;;11.50;99.90;;;;;;4965501;28;20067;-81
2020/12/19 11:54:53;;;;;;;10.13;7.15;;;11.60;99.90;;;;;;4964609;28;20081;-81
2020/12/19 11:57:20;;;;;;;10.27;8.10;;;11.70;99.90;;;;;;4965266;28;20047;-81
2020/12/19 11:59:49;;;;;;;11.07;7.20;;;11.80;99.90;;;;;;4969470;28;20172;-79
2020/12/19 12:02:15;;;;;;;9.98;7.72;;;11.80;99.90;;;;;;4968780;28;20055;-81
2020/12/19 12:07:13;;;;;;;11.52;7.60;;;12.00;99.90;;;;;;5002557;23;20130;-81
2020/12/19 12:09:41;;;;;;;9.70;7.10;;;12.10;99.90;;;;;;4983275;28;20467;-82
2020/12/19 12:12:07;;;;;;;9.23;7.00;;;12.20;99.90;;;;;;4979551;28;20134;-81
2020/12/19 12:14:33;;;;;;;11.65;7.78;;;12.20;99.90;;;;;;4983024;28;20093;-81
2020/12/19 12:17:00;;;;;;;10.23;7.63;;;12.20;99.90;;;;;;4966126;28;20142;-81
2020/12/19 12:19:26;;;;;;;10.95;7.22;;;12.20;99.90;;;;;;4965879;28;20048;-82
2020/12/19 12:21:52;;;;;;;10.90;6.97;;;12.20;99.90;;;;;;4963748;29;20568;-80
2020/12/19 12:24:19;;;;;;;12.38;8.45;;;12.20;99.90;;;;;;4964501;28;20134;-80
2020/12/19 12:26:46;;;;;;;11.52;7.88;;;12.20;99.90;;;;;;4965971;28;20119;-80
2020/12/19 12:29:12;;;;;;;9.43;7.57;;;12.20;99.90;;;;;;4962443;28;20078;-79
2020/12/19 12:31:40;;;;;;;11.93;7.82;;;12.30;99.90;;;;;;4965151;28;20130;-80
2020/12/19 12:34:07;;;;;;;9.77;7.32;;;12.30;99.90;;;;;;4966687;28;20051;-81
2020/12/19 12:36:33;;;;;;;11.60;6.65;;;12.40;99.90;;;;;;4965212;28;20062;-80
2020/12/19 12:39:00;;;;;;;10.20;7.13;;;12.50;99.90;;;;;;4963366;28;20206;-80
2020/12/19 12:41:27;;;;;;;11.02;6.95;;;12.40;99.90;;;;;;4961632;29;20513;-80
2020/12/19 12:43:54;;;;;;;14.10;8.93;;;12.50;99.90;;;;;;4961419;28;20091;-80
2020/12/19 12:46:20;;;;;;;10.50;7.10;;;12.50;99.90;;;;;;4962234;28;20047;-81